sensor_id;sensor_type;location;lat;lon;timestamp;P1;durP1;ratioP1;P2;durP2;ratioP2
75516;SDS011;64097;52.548;13.406;2022-10-12T06:04:13;13.18;;;7.63;;
75516;SDS011;64097;52.548;13.406;2022-10-12T06:06:39;11.02;;;7.63;;
75516;SDS011;64097;52.548;13.406;2022-10-12T06:09:05;13.00;;;7.68;;
75516;SDS011;64097;52.548;13.406;2022-10-12T06:11:31;12.50;;;7.22;;
75516;SDS011;64097;52.548;13.406;2022-10-12T06:13:57;9.02;;;6.53;;
75516;SDS011;64097;52.548;13.406;2022-10-12T06:16:23;10.48;;;6.95;;
75516;SDS011;64097;52.548;13.406;2022-10-12T06:18:51;9.77;;;6.43;;
75516;SDS011;64097;52.548;13.406;2022-10-12T06:21:17;9.23;;;7.10;;
75516;SDS011;64097;52.548;13.406;2022-10-12T06:23:43;10.65;;;7.13;;
75516;SDS011;64097;52.548;13.406;2022-10-12T06:26:09;12.70;;;7.32;;
75516;SDS011;64097;52.548;13.406;2022-10-12T06:28:42;9.98;;;6.95;;
75516;SDS011;64097;52.548;13.406;2022-10-12T06:31:08;10.95;;;7.20;;
75516;SDS011;64097;52.548;13.406;2022-10-12T06:33:38;9.52;;;6.38;;
75516;SDS011;64097;52.548;13.406;2022-10-12T06:36:04;10.50;;;7.22;;
75516;SDS011;64097;52.548;13.406;2022-10-12T06:38:30;13.30;;;7.38;;
75516;SDS011;64097;52.548;13.406;2022-10-12T06:40:59;11.88;;;8.18;;
75516;SDS011;64097;52.548;13.406;2022-10-12T06:43:29;13.18;;;7.18;;
75516;SDS011;64097;52.548;13.406;2022-10-12T06:45:58;12.02;;;7.07;;
75516;SDS011;64097;52.548;13.406;2022-10-12T06:48:25;10.85;;;7.05;;
75516;SDS011;64097;52.548;13.406;2022-10-12T06:50:51;11.88;;;6.88;;
75516;SDS011;64097;52.548;13.406;2022-10-12T06:53:17;9.75;;;6.60;;
75516;SDS011;64097;52.548;13.406;2022-10-12T06:55:43;11.82;;;7.43;;
75516;SDS011;64097;52.548;13.406;2022-10-12T06:58:09;10.18;;;6.68;;
75516;SDS011;64097;52.548;13.406;2022-10-12T07:00:35;13.73;;;7.40;;
75516;SDS011;64097;52.548;13.406;2022-10-12T07:03:01;11.05;;;6.40;;
75516;SDS011;64097;52.548;13.406;2022-10-12T07:05:26;10.70;;;6.50;;
75516;SDS011;64097;52.548;13.406;2022-10-12T07:07:52;10.70;;;6.72;;
75516;SDS011;64097;52.548;13.406;2022-10-12T07:10:18;13.07;;;7.50;;
75516;SDS011;64097;52.548;13.406;2022-10-12T07:12:44;11.45;;;6.90;;
75516;SDS011;64097;52.548;13.406;2022-10-12T07:15:10;10.13;;;6.65;;
75516;SDS011;64097;52.548;13.406;2022-10-12T07:17:35;9.18;;;6.13;;
75516;SDS011;64097;52.548;13.406;2022-10-12T07:20:01;11.98;;;7.22;;
75516;SDS011;64097;52.548;13.406;2022-10-12T07:22:27;11.30;;;6.38;;
75516;SDS011;64097;52.548;13.406;2022-10-12T07:24:53;10.00;;;6.25;;
75516;SDS011;64097;52.548;13.406;2022-10-12T07:27:18;7.80;;;5.45;;
75516;SDS011;64097;52.548;13.406;2022-10-12T07:29:44;10.10;;;5.80;;
75516;SDS011;64097;52.548;13.406;2022-10-12T07:32:10;7.40;;;5.03;;
75516;SDS011;64097;52.548;13.406;2022-10-12T07:34:35;9.80;;;5.45;;
75516;SDS011;64097;52.548;13.406;2022-10-12T07:37:01;8.13;;;4.72;;
75516;SDS011;64097;52.548;13.406;2022-10-12T07:39:27;9.77;;;5.72;;
75516;SDS011;64097;52.548;13.406;2022-10-12T07:41:53;10.55;;;5.82;;
75516;SDS011;64097;52.548;13.406;2022-10-12T07:44:19;8.13;;;5.43;;
75516;SDS011;64097;52.548;13.406;2022-10-12T07:46:45;10.52;;;5.30;;
75516;SDS011;64097;52.548;13.406;2022-10-12T07:49:11;7.70;;;4.72;;
75516;SDS011;64097;52.548;13.406;2022-10-12T07:51:37;8.32;;;4.80;;
75516;SDS011;64097;52.548;13.406;2022-10-12T07:54:04;10.80;;;5.18;;
75516;SDS011;64097;52.548;13.406;2022-10-12T07:56:30;10.45;;;4.95;;
75516;SDS011;64097;52.548;13.406;2022-10-12T07:58:56;9.15;;;4.43;;
75516;SDS011;64097;52.548;13.406;2022-10-12T08:01:23;9.77;;;4.50;;
75516;SDS011;64097;52.548;13.406;2022-10-12T08:03:52;12.35;;;4.63;;
75516;SDS011;64097;52.548;13.406;2022-10-12T08:06:22;8.43;;;4.05;;
75516;SDS011;64097;52.548;13.406;2022-10-12T08:08:49;9.65;;;4.55;;
75516;SDS011;64097;52.548;13.406;2022-10-12T08:11:16;8.25;;;4.28;;
75516;SDS011;64097;52.548;13.406;2022-10-12T08:13:42;7.28;;;4.20;;
75516;SDS011;64097;52.548;13.406;2022-10-12T08:16:09;7.07;;;4.13;;
75516;SDS011;64097;52.548;13.406;2022-10-12T08:18:40;8.30;;;3.83;;
75516;SDS011;64097;52.548;13.406;2022-10-12T08:21:07;9.55;;;4.65;;
75516;SDS011;64097;52.548;13.406;2022-10-12T08:23:34;7.80;;;4.15;;
75516;SDS011;64097;52.548;13.406;2022-10-12T08:26:00;8.48;;;4.55;;
75516;SDS011;64097;52.548;13.406;2022-10-12T08:28:26;7.20;;;3.92;;
75516;SDS011;64097;52.548;13.406;2022-10-12T08:30:52;7.30;;;3.95;;
75516;SDS011;64097;52.548;13.406;2022-10-12T08:33:18;8.10;;;4.13;;
75516;SDS011;64097;52.548;13.406;2022-10-12T08:35:44;8.35;;;4.18;;
75516;SDS011;64097;52.548;13.406;2022-10-12T08:38:12;7.80;;;3.75;;
75516;SDS011;64097;52.548;13.406;2022-10-12T08:40:45;7.53;;;3.38;;
75516;SDS011;64097;52.548;13.406;2022-10-12T08:48:19;7.78;;;3.22;;
75516;SDS011;64097;52.548;13.406;2022-10-12T08:50:52;7.68;;;3.45;;
75516;SDS011;64097;52.548;13.406;2022-10-12T08:56:17;5.93;;;2.70;;
75516;SDS011;64097;52.548;13.406;2022-10-12T08:58:44;7.03;;;2.97;;
75516;SDS011;64097;52.548;13.406;2022-10-12T09:06:34;4.45;;;2.25;;
75516;SDS011;64097;52.548;13.406;2022-10-12T09:12:39;6.10;;;2.55;;
75516;SDS011;64097;52.548;13.406;2022-10-12T09:15:14;6.95;;;2.35;;
75516;SDS011;64097;52.548;13.406;2022-10-12T09:17:53;5.93;;;2.15;;
75516;SDS011;64097;52.548;13.406;2022-10-12T09:23:24;3.85;;;1.52;;
75516;SDS011;64097;52.548;13.406;2022-10-12T09:25:52;5.38;;;2.05;;
75516;SDS011;64097;52.548;13.406;2022-10-12T09:28:56;6.85;;;2.00;;
75516;SDS011;64097;52.548;13.406;2022-10-12T09:34:00;6.57;;;2.20;;
75516;SDS011;64097;52.548;13.406;2022-10-12T09:36:32;4.95;;;1.90;;
75516;SDS011;64097;52.548;13.406;2022-10-12T09:39:02;4.60;;;1.90;;
75516;SDS011;64097;52.548;13.406;2022-10-12T09:41:33;5.13;;;2.40;;
75516;SDS011;64097;52.548;13.406;2022-10-12T09:44:02;5.90;;;2.50;;
75516;SDS011;64097;52.548;13.406;2022-10-12T09:46:44;6.07;;;2.30;;
75516;SDS011;64097;52.548;13.406;2022-10-12T09:49:13;8.23;;;2.95;;
75516;SDS011;64097;52.548;13.406;2022-10-12T09:51:39;6.38;;;2.42;;
75516;SDS011;64097;52.548;13.406;2022-10-12T09:54:05;8.00;;;2.63;;
75516;SDS011;64097;52.548;13.406;2022-10-12T09:56:39;3.95;;;2.00;;
75516;SDS011;64097;52.548;13.406;2022-10-12T10:02:23;3.03;;;1.50;;
75516;SDS011;64097;52.548;13.406;2022-10-12T10:04:43;5.05;;;2.28;;
75516;SDS011;64097;52.548;13.406;2022-10-12T10:12:59;4.85;;;2.17;;
75516;SDS011;64097;52.548;13.406;2022-10-12T10:15:28;6.88;;;2.10;;
75516;SDS011;64097;52.548;13.406;2022-10-12T10:18:01;7.35;;;2.42;;
75516;SDS011;64097;52.548;13.406;2022-10-12T10:20:42;5.50;;;2.20;;
75516;SDS011;64097;52.548;13.406;2022-10-12T10:23:58;6.78;;;2.60;;
75516;SDS011;64097;52.548;13.406;2022-10-12T10:26:09;4.28;;;1.80;;
75516;SDS011;64097;52.548;13.406;2022-10-12T10:28:38;4.45;;;1.73;;
75516;SDS011;64097;52.548;13.406;2022-10-12T10:31:19;4.68;;;1.90;;
75516;SDS011;64097;52.548;13.406;2022-10-12T10:36:31;6.95;;;2.15;;
75516;SDS011;64097;52.548;13.406;2022-10-12T10:39:04;10.05;;;2.30;;
75516;SDS011;64097;52.548;13.406;2022-10-12T10:41:39;4.40;;;1.95;;
75516;SDS011;64097;52.548;13.406;2022-10-12T10:46:44;10.25;;;2.10;;
75516;SDS011;64097;52.548;13.406;2022-10-12T10:49:20;6.18;;;1.50;;
75516;SDS011;64097;52.548;13.406;2022-10-12T10:51:51;4.03;;;1.65;;
75516;SDS011;64097;52.548;13.406;2022-10-12T10:56:46;8.00;;;1.90;;
75516;SDS011;64097;52.548;13.406;2022-10-12T10:59:15;8.40;;;1.85;;
75516;SDS011;64097;52.548;13.406;2022-10-12T11:02:02;5.50;;;1.38;;
75516;SDS011;64097;52.548;13.406;2022-10-12T11:04:43;7.20;;;1.70;;
75516;SDS011;64097;52.548;13.406;2022-10-12T11:13:30;4.82;;;1.40;;
75516;SDS011;64097;52.548;13.406;2022-10-12T11:16:51;4.60;;;1.25;;
75516;SDS011;64097;52.548;13.406;2022-10-12T11:19:12;7.47;;;1.30;;
75516;SDS011;64097;52.548;13.406;2022-10-12T11:21:50;2.42;;;1.20;;
75516;SDS011;64097;52.548;13.406;2022-10-12T11:29:42;3.92;;;1.52;;
75516;SDS011;64097;52.548;13.406;2022-10-12T11:32:20;5.47;;;1.67;;
75516;SDS011;64097;52.548;13.406;2022-10-12T11:34:52;5.00;;;1.60;;
75516;SDS011;64097;52.548;13.406;2022-10-12T11:37:24;7.97;;;1.40;;
75516;SDS011;64097;52.548;13.406;2022-10-12T11:40:00;5.40;;;1.23;;
75516;SDS011;64097;52.548;13.406;2022-10-12T11:42:32;4.60;;;1.20;;
75516;SDS011;64097;52.548;13.406;2022-10-12T11:45:03;4.47;;;1.10;;
75516;SDS011;64097;52.548;13.406;2022-10-12T11:47:41;3.00;;;1.15;;
75516;SDS011;64097;52.548;13.406;2022-10-12T11:53:01;4.70;;;1.33;;
75516;SDS011;64097;52.548;13.406;2022-10-12T11:55:54;8.40;;;1.65;;
75516;SDS011;64097;52.548;13.406;2022-10-12T11:58:30;6.22;;;1.40;;
75516;SDS011;64097;52.548;13.406;2022-10-12T12:01:10;5.05;;;1.40;;
75516;SDS011;64097;52.548;13.406;2022-10-12T12:11:32;3.80;;;1.10;;
75516;SDS011;64097;52.548;13.406;2022-10-12T12:17:08;2.95;;;1.00;;
75516;SDS011;64097;52.548;13.406;2022-10-12T12:19:49;5.32;;;1.30;;
75516;SDS011;64097;52.548;13.406;2022-10-12T12:22:20;4.15;;;1.10;;
75516;SDS011;64097;52.548;13.406;2022-10-12T12:32:46;5.10;;;1.27;;
75516;SDS011;64097;52.548;13.406;2022-10-12T12:35:20;4.65;;;1.27;;
75516;SDS011;64097;52.548;13.406;2022-10-12T12:37:59;5.63;;;1.20;;
75516;SDS011;64097;52.548;13.406;2022-10-12T12:40:27;5.60;;;1.00;;
75516;SDS011;64097;52.548;13.406;2022-10-12T12:43:17;12.13;;;1.40;;
75516;SDS011;64097;52.548;13.406;2022-10-12T12:51:23;4.72;;;1.20;;
75516;SDS011;64097;52.548;13.406;2022-10-12T12:54:00;7.88;;;1.48;;
75516;SDS011;64097;52.548;13.406;2022-10-12T12:56:40;7.70;;;1.40;;
75516;SDS011;64097;52.548;13.406;2022-10-12T13:02:00;4.05;;;1.30;;
75516;SDS011;64097;52.548;13.406;2022-10-12T13:20:47;4.90;;;1.23;;
75516;SDS011;64097;52.548;13.406;2022-10-12T13:23:23;4.50;;;1.10;;
75516;SDS011;64097;52.548;13.406;2022-10-12T13:25:58;2.95;;;1.00;;
75516;SDS011;64097;52.548;13.406;2022-10-12T13:28:29;3.17;;;1.02;;
75516;SDS011;64097;52.548;13.406;2022-10-12T13:31:10;4.38;;;1.20;;
75516;SDS011;64097;52.548;13.406;2022-10-12T13:33:47;2.78;;;0.90;;
75516;SDS011;64097;52.548;13.406;2022-10-12T13:36:24;9.52;;;1.23;;
75516;SDS011;64097;52.548;13.406;2022-10-12T13:38:55;3.42;;;1.00;;
75516;SDS011;64097;52.548;13.406;2022-10-12T13:41:22;5.78;;;1.70;;
75516;SDS011;64097;52.548;13.406;2022-10-12T13:43:54;4.90;;;1.52;;
75516;SDS011;64097;52.548;13.406;2022-10-12T13:49:08;3.45;;;1.02;;
75516;SDS011;64097;52.548;13.406;2022-10-12T13:51:42;4.40;;;1.15;;
75516;SDS011;64097;52.548;13.406;2022-10-12T13:54:23;3.33;;;1.00;;
75516;SDS011;64097;52.548;13.406;2022-10-12T13:56:57;5.22;;;1.55;;
75516;SDS011;64097;52.548;13.406;2022-10-12T13:59:31;4.82;;;1.38;;
